Time;durP1;ratioP1;P1;durP2;ratioP2;P2;SDS_P1;SDS_P2;PMS_P1;PMS_P2;Temp;Humidity;BMP_temperature;BMP_pressure;BME280_temperature;BME280_humidity;BME280_pressure;Samples;Min_cycle;Max_cycle;Signal;HPM_P1;HPM_P2
2023/06/11 00:36:14;;;;;;;1999.90;999.90;;;;;;;;;;4968249;23;20488;-71
2023/06/11 00:38:59;;;;;;;1999.90;999.90;;;;;;;;;;4891414;29;20218;-72
2023/06/11 00:41:48;;;;;;;1999.90;999.90;;;;;;;;;;4890139;29;20238;-73
2023/06/11 00:44:33;;;;;;;1999.90;999.90;;;;;;;;;;4878363;29;20328;-73
2023/06/11 00:47:18;;;;;;;1999.90;999.90;;;;;;;;;;4881561;29;20214;-73
2023/06/11 00:50:04;;;;;;;1999.90;999.90;;;;;;;;;;4881497;29;20211;-72
2023/06/11 00:52:50;;;;;;;1999.90;999.90;;;;;;;;;;4882324;29;20217;-73
2023/06/11 00:55:35;;;;;;;1999.90;999.90;;;;;;;;;;4880875;29;21078;-73
2023/06/11 00:58:21;;;;;;;1999.90;999.90;;;;;;;;;;4875237;29;20480;-73
2023/06/11 01:01:07;;;;;;;1999.90;999.90;;;;;;;;;;4879074;29;20224;-70
2023/06/11 01:03:56;;;;;;;1999.90;999.90;;;;;;;;;;4881547;29;20709;-73
2023/06/11 01:06:46;;;;;;;1999.90;999.90;;;;;;;;;;4882010;29;20212;-73
2023/06/11 01:09:33;;;;;;;1999.90;999.90;;;;;;;;;;4881913;29;20215;-72
2023/06/11 01:12:18;;;;;;;1999.90;999.90;;;;;;;;;;4881306;29;20271;-73
2023/06/11 01:15:03;;;;;;;1999.90;999.90;;;;;;;;;;4880441;29;20235;-70
2023/06/11 01:17:52;;;;;;;1999.90;999.90;;;;;;;;;;4881125;29;20352;-70
2023/06/11 01:20:40;;;;;;;1999.90;999.90;;;;;;;;;;4880621;29;20312;-71
2023/06/11 01:23:31;;;;;;;1999.90;999.90;;;;;;;;;;4881841;29;20227;-72
2023/06/11 01:26:22;;;;;;;1999.90;999.90;;;;;;;;;;4889642;29;20299;-73
2023/06/11 01:29:09;;;;;;;1999.90;999.90;;;;;;;;;;4886678;29;20476;-73
2023/06/11 01:31:54;;;;;;;1999.90;999.90;;;;;;;;;;4893885;29;20238;-73
2023/06/11 01:34:41;;;;;;;1999.90;999.90;;;;;;;;;;4887659;29;20304;-73
2023/06/11 01:37:29;;;;;;;1999.90;999.90;;;;;;;;;;4884155;29;20355;-72
2023/06/11 01:40:14;;;;;;;1999.90;999.90;;;;;;;;;;4891811;29;20211;-73
2023/06/11 01:42:59;;;;;;;1999.90;999.90;;;;;;;;;;4890887;29;20221;-73
2023/06/11 01:45:45;;;;;;;1999.90;999.90;;;;;;;;;;4883586;29;20263;-73
2023/06/11 01:48:30;;;;;;;1999.90;999.90;;;;;;;;;;4880505;29;20415;-73
2023/06/11 01:51:15;;;;;;;1999.90;999.90;;;;;;;;;;4895192;29;20308;-73
2023/06/11 01:54:00;;;;;;;1999.90;999.90;;;;;;;;;;4891598;29;20591;-73
2023/06/11 01:56:45;;;;;;;1999.90;999.90;;;;;;;;;;4884484;29;20922;-72
2023/06/11 01:59:30;;;;;;;1999.90;999.90;;;;;;;;;;4892433;29;20211;-73
2023/06/11 02:02:16;;;;;;;1999.90;999.90;;;;;;;;;;4891341;29;20211;-72
2023/06/11 02:05:01;;;;;;;1999.90;999.90;;;;;;;;;;4896021;29;20238;-73
2023/06/11 02:07:46;;;;;;;1999.90;999.90;;;;;;;;;;4887851;29;20283;-72
2023/06/11 02:10:31;;;;;;;1999.90;999.90;;;;;;;;;;4862084;29;20216;-73
2023/06/11 02:13:16;;;;;;;1999.90;999.90;;;;;;;;;;4889777;29;20265;-73
2023/06/11 02:16:01;;;;;;;1999.90;999.90;;;;;;;;;;4892204;29;20767;-72
2023/06/11 02:18:47;;;;;;;1999.90;999.90;;;;;;;;;;4887274;29;20487;-74
2023/06/11 02:21:32;;;;;;;1999.90;999.90;;;;;;;;;;4880955;29;20219;-74
2023/06/11 02:24:17;;;;;;;1999.90;999.90;;;;;;;;;;4891035;29;20605;-73
2023/06/11 02:27:02;;;;;;;1999.90;999.90;;;;;;;;;;4886048;29;20763;-73
2023/06/11 02:29:47;;;;;;;1999.90;999.90;;;;;;;;;;4888049;29;20319;-72
2023/06/11 02:32:32;;;;;;;1999.90;999.90;;;;;;;;;;4890899;29;20579;-72
2023/06/11 02:35:18;;;;;;;1999.90;999.90;;;;;;;;;;4895807;29;20819;-73
2023/06/11 02:38:03;;;;;;;1999.90;999.90;;;;;;;;;;4889918;29;20449;-73
2023/06/11 02:40:48;;;;;;;1999.90;999.90;;;;;;;;;;4892604;29;20214;-73
2023/06/11 02:43:33;;;;;;;1999.90;999.90;;;;;;;;;;4894283;29;20835;-73
2023/06/11 02:46:17;;;;;;;1999.90;999.90;;;;;;;;;;4889983;29;20227;-73
2023/06/11 02:49:02;;;;;;;1999.90;999.90;;;;;;;;;;4894054;29;20210;-73
2023/06/11 02:51:49;;;;;;;1999.90;999.90;;;;;;;;;;4887442;29;20258;-74
2023/06/11 02:54:33;;;;;;;1999.90;999.90;;;;;;;;;;4883989;29;20246;-73
2023/06/11 02:57:19;;;;;;;1999.90;999.90;;;;;;;;;;4885001;29;20223;-73
2023/06/11 03:00:04;;;;;;;1999.90;999.90;;;;;;;;;;4868500;29;20268;-74
2023/06/11 03:02:49;;;;;;;1999.90;999.90;;;;;;;;;;4872882;29;20219;-72
2023/06/11 03:05:34;;;;;;;1999.90;999.90;;;;;;;;;;4877997;29;20296;-73
2023/06/11 03:08:21;;;;;;;1999.90;999.90;;;;;;;;;;4870969;29;20265;-73
2023/06/11 03:11:05;;;;;;;1999.90;999.90;;;;;;;;;;4877387;29;20600;-73
2023/06/11 03:13:50;;;;;;;1999.90;999.90;;;;;;;;;;4873338;29;20751;-73
2023/06/11 03:16:35;;;;;;;1999.90;999.90;;;;;;;;;;4868433;29;20308;-73
2023/06/11 03:19:20;;;;;;;1999.90;999.90;;;;;;;;;;4877323;29;20238;-72
2023/06/11 03:22:05;;;;;;;1999.90;999.90;;;;;;;;;;4872932;29;20239;-73
2023/06/11 03:24:51;;;;;;;1999.90;999.90;;;;;;;;;;4872138;29;20235;-73
2023/06/11 03:27:36;;;;;;;1999.90;999.90;;;;;;;;;;4879649;29;20215;-73
2023/06/11 03:30:21;;;;;;;1999.90;999.90;;;;;;;;;;4873690;29;20452;-75
2023/06/11 03:33:05;;;;;;;1999.90;999.90;;;;;;;;;;4875468;29;20595;-72
2023/06/11 03:35:50;;;;;;;1999.90;999.90;;;;;;;;;;4879475;29;20243;-72
2023/06/11 03:38:35;;;;;;;1999.90;999.90;;;;;;;;;;4874735;29;20223;-72
2023/06/11 03:41:21;;;;;;;1999.90;999.90;;;;;;;;;;4882459;29;20227;-72
2023/06/11 03:44:07;;;;;;;1999.90;999.90;;;;;;;;;;4873907;29;20320;-71
2023/06/11 03:46:52;;;;;;;1999.90;999.90;;;;;;;;;;4876310;29;20704;-73
2023/06/11 03:49:36;;;;;;;1999.90;999.90;;;;;;;;;;4878217;29;20350;-72
2023/06/11 03:52:21;;;;;;;1999.90;999.90;;;;;;;;;;4882473;29;20215;-72
2023/06/11 03:55:07;;;;;;;1999.90;999.90;;;;;;;;;;4871380;29;20372;-72
2023/06/11 03:57:53;;;;;;;1999.90;999.90;;;;;;;;;;4881436;29;20749;-73
2023/06/11 04:00:38;;;;;;;1999.90;999.90;;;;;;;;;;4881704;29;20291;-72
2023/06/11 04:03:23;;;;;;;1999.90;999.90;;;;;;;;;;4878860;29;20922;-72
2023/06/11 04:06:08;;;;;;;1999.90;999.90;;;;;;;;;;4873403;29;20232;-72
2023/06/11 04:08:53;;;;;;;1999.90;999.90;;;;;;;;;;4874149;29;20336;-73
2023/06/11 04:11:37;;;;;;;1999.90;999.90;;;;;;;;;;4880593;29;20704;-73
2023/06/11 04:14:24;;;;;;;1999.90;999.90;;;;;;;;;;4889138;29;20603;-73
2023/06/11 04:17:10;;;;;;;1999.90;999.90;;;;;;;;;;4881111;29;20215;-73
2023/06/11 04:19:54;;;;;;;1999.90;999.90;;;;;;;;;;4880889;29;20304;-71
2023/06/11 04:22:39;;;;;;;1999.90;999.90;;;;;;;;;;4865267;29;20450;-70
2023/06/11 04:25:24;;;;;;;1999.90;999.90;;;;;;;;;;4872406;29;20235;-73
2023/06/11 04:28:10;;;;;;;1999.90;999.90;;;;;;;;;;4878099;29;20299;-72
2023/06/11 04:30:57;;;;;;;1999.90;999.90;;;;;;;;;;4874155;29;20228;-73
2023/06/11 04:33:42;;;;;;;1999.90;999.90;;;;;;;;;;4877665;29;20227;-73
2023/06/11 04:36:27;;;;;;;1999.90;999.90;;;;;;;;;;4878195;29;20210;-73
2023/06/11 04:39:12;;;;;;;1999.90;999.90;;;;;;;;;;4877763;29;20231;-72
2023/06/11 04:41:58;;;;;;;1999.90;999.90;;;;;;;;;;4877971;29;20776;-73
2023/06/11 04:44:43;;;;;;;1999.90;999.90;;;;;;;;;;4881203;29;20709;-73
2023/06/11 04:47:32;;;;;;;1999.90;999.90;;;;;;;;;;4878983;29;20755;-72
2023/06/11 04:50:20;;;;;;;1999.90;999.90;;;;;;;;;;4878380;29;20581;-74
2023/06/11 04:53:05;;;;;;;1999.90;999.90;;;;;;;;;;4878836;29;20424;-72
2023/06/11 04:55:50;;;;;;;1999.90;999.90;;;;;;;;;;4876133;29;20235;-71
2023/06/11 04:58:36;;;;;;;1999.90;999.90;;;;;;;;;;4877544;29;20234;-71
2023/06/11 05:01:21;;;;;;;1999.90;999.90;;;;;;;;;;4877631;29;20590;-71
2023/06/11 05:04:07;;;;;;;1999.90;999.90;;;;;;;;;;4885497;29;20210;-71
2023/06/11 05:06:54;;;;;;;1999.90;999.90;;;;;;;;;;4877523;29;20341;-74
2023/06/11 05:09:41;;;;;;;1999.90;999.90;;;;;;;;;;4894883;29;20218;-73
2023/06/11 05:12:27;;;;;;;1999.90;999.90;;;;;;;;;;4879488;29;20408;-71
2023/06/11 05:15:12;;;;;;;1999.90;999.90;;;;;;;;;;4877622;29;20238;-73
2023/06/11 05:17:57;;;;;;;1999.90;999.90;;;;;;;;;;4874840;29;20286;-73
2023/06/11 05:20:45;;;;;;;1999.90;999.90;;;;;;;;;;4891016;29;20307;-72
2023/06/11 05:23:31;;;;;;;1999.90;999.90;;;;;;;;;;4884220;29;20230;-73
2023/06/11 05:26:18;;;;;;;1999.90;999.90;;;;;;;;;;4892613;29;20215;-72
2023/06/11 05:29:04;;;;;;;1999.90;999.90;;;;;;;;;;4885234;29;20594;-71
2023/06/11 05:31:49;;;;;;;1999.90;999.90;;;;;;;;;;4878809;29;20214;-72
2023/06/11 05:34:34;;;;;;;1999.90;999.90;;;;;;;;;;4880863;29;20250;-73
2023/06/11 05:37:20;;;;;;;1999.90;999.90;;;;;;;;;;4885332;29;20353;-73
2023/06/11 05:40:06;;;;;;;1999.90;999.90;;;;;;;;;;4878350;29;20363;-74
2023/06/11 05:42:51;;;;;;;1999.90;999.90;;;;;;;;;;4875617;29;20230;-73
2023/06/11 05:45:36;;;;;;;1999.90;999.90;;;;;;;;;;4879823;29;20279;-73
2023/06/11 05:48:21;;;;;;;1999.90;999.90;;;;;;;;;;4882200;29;20296;-74
2023/06/11 05:51:06;;;;;;;1999.90;999.90;;;;;;;;;;4881614;29;20234;-74
2023/06/11 05:53:52;;;;;;;1999.90;999.90;;;;;;;;;;4886097;29;20683;-71
2023/06/11 05:56:37;;;;;;;1999.90;999.90;;;;;;;;;;4887910;29;20207;-74
2023/06/11 05:59:22;;;;;;;1999.90;999.90;;;;;;;;;;4881642;29;20724;-72
2023/06/11 06:02:07;;;;;;;1999.90;999.90;;;;;;;;;;4881429;29;20559;-70
2023/06/11 06:04:52;;;;;;;1999.90;999.90;;;;;;;;;;4879466;29;20603;-72
2023/06/11 06:07:37;;;;;;;1999.90;999.90;;;;;;;;;;4882308;29;20286;-72
2023/06/11 06:10:24;;;;;;;1999.90;999.90;;;;;;;;;;4879194;29;20215;-71
2023/06/11 06:13:09;;;;;;;1999.90;999.90;;;;;;;;;;4881119;29;21020;-72
2023/06/11 06:15:54;;;;;;;1999.90;999.90;;;;;;;;;;4879165;29;20233;-73
2023/06/11 06:18:39;;;;;;;1999.90;999.90;;;;;;;;;;4877343;29;20223;-72
2023/06/11 06:21:25;;;;;;;1999.90;999.90;;;;;;;;;;4875365;29;20223;-72
2023/06/11 06:24:11;;;;;;;1999.90;999.90;;;;;;;;;;4879502;29;20248;-71
2023/06/11 06:26:58;;;;;;;1999.90;999.90;;;;;;;;;;4880923;29;20305;-72
2023/06/11 06:29:43;;;;;;;1999.90;999.90;;;;;;;;;;4879588;29;20211;-72
2023/06/11 06:32:28;;;;;;;1999.90;999.90;;;;;;;;;;4878918;29;20238;-71
2023/06/11 06:35:13;;;;;;;1999.90;999.90;;;;;;;;;;4873445;29;20457;-72
2023/06/11 06:37:58;;;;;;;1999.90;999.90;;;;;;;;;;4876461;29;20466;-71
2023/06/11 06:40:43;;;;;;;1999.90;999.90;;;;;;;;;;4876107;29;20227;-72
2023/06/11 06:43:29;;;;;;;1999.90;999.90;;;;;;;;;;4879899;29;20721;-72
2023/06/11 06:46:14;;;;;;;1999.90;999.90;;;;;;;;;;4883934;29;20219;-71
2023/06/11 06:48:59;;;;;;;1999.90;999.90;;;;;;;;;;4869021;29;20212;-72
2023/06/11 06:51:44;;;;;;;1999.90;999.90;;;;;;;;;;4872225;29;20292;-71
2023/06/11 06:54:29;;;;;;;1999.90;999.90;;;;;;;;;;4875355;29;20485;-72
2023/06/11 06:57:14;;;;;;;1999.90;999.90;;;;;;;;;;4872886;29;20235;-71
2023/06/11 07:00:00;;;;;;;1999.90;999.90;;;;;;;;;;4883138;29;20305;-72
2023/06/11 07:02:45;;;;;;;1999.90;999.90;;;;;;;;;;4870730;29;20240;-72
2023/06/11 07:05:30;;;;;;;1999.90;999.90;;;;;;;;;;4862358;29;20292;-72
2023/06/11 07:08:15;;;;;;;1999.90;999.90;;;;;;;;;;4870558;29;20220;-72
2023/06/11 07:11:00;;;;;;;1999.90;999.90;;;;;;;;;;4865805;29;20312;-72
2023/06/11 07:13:45;;;;;;;1999.90;999.90;;;;;;;;;;4877788;29;20777;-72
2023/06/11 07:16:31;;;;;;;1999.90;999.90;;;;;;;;;;4878014;29;20222;-72
2023/06/11 07:19:16;;;;;;;1999.90;999.90;;;;;;;;;;4874829;29;20724;-72
2023/06/11 07:22:01;;;;;;;1999.90;999.90;;;;;;;;;;4874297;29;20216;-72
2023/06/11 07:24:48;;;;;;;1999.90;999.90;;;;;;;;;;4879186;29;20732;-72
2023/06/11 07:27:33;;;;;;;1999.90;999.90;;;;;;;;;;4876819;29;20935;-73
2023/06/11 07:30:17;;;;;;;1999.90;999.90;;;;;;;;;;4874195;29;20235;-70
2023/06/11 07:33:04;;;;;;;1999.90;999.90;;;;;;;;;;4891944;29;20218;-71
2023/06/11 07:35:49;;;;;;;1999.90;999.90;;;;;;;;;;4884428;29;20242;-72
2023/06/11 07:38:34;;;;;;;1999.90;999.90;;;;;;;;;;4886404;29;20760;-72
2023/06/11 07:41:19;;;;;;;1999.90;999.90;;;;;;;;;;4871773;29;20219;-71
2023/06/11 07:44:04;;;;;;;1999.90;999.90;;;;;;;;;;4867198;29;20218;-71
2023/06/11 07:46:49;;;;;;;1999.90;999.90;;;;;;;;;;4876646;29;20435;-72
2023/06/11 07:49:35;;;;;;;1999.90;999.90;;;;;;;;;;4879901;29;20352;-72
2023/06/11 07:52:20;;;;;;;1999.90;999.90;;;;;;;;;;4878663;29;20343;-71
2023/06/11 07:55:06;;;;;;;1999.90;999.90;;;;;;;;;;4878270;29;20744;-72
2023/06/11 07:57:51;;;;;;;1999.90;999.90;;;;;;;;;;4894307;29;20227;-71
2023/06/11 08:00:36;;;;;;;1999.90;999.90;;;;;;;;;;4880393;29;20318;-71
2023/06/11 08:03:21;;;;;;;1999.90;999.90;;;;;;;;;;4893108;29;20219;-71
2023/06/11 08:06:07;;;;;;;1999.90;999.90;;;;;;;;;;4887854;29;20367;-72
2023/06/11 08:08:53;;;;;;;1999.90;999.90;;;;;;;;;;4871041;29;20209;-72
2023/06/11 08:11:41;;;;;;;1999.90;999.90;;;;;;;;;;4882143;29;20243;-71
2023/06/11 08:14:26;;;;;;;1999.90;999.90;;;;;;;;;;4880242;29;20235;-72
2023/06/11 08:17:11;;;;;;;1999.90;999.90;;;;;;;;;;4882441;29;20563;-72
2023/06/11 08:19:56;;;;;;;1999.90;999.90;;;;;;;;;;4874525;29;20231;-72
2023/06/11 08:22:42;;;;;;;1999.90;999.90;;;;;;;;;;4881290;29;20781;-72
2023/06/11 08:25:27;;;;;;;1999.90;999.90;;;;;;;;;;4877358;29;20605;-72
2023/06/11 08:28:12;;;;;;;1999.90;999.90;;;;;;;;;;4876118;29;20236;-72
2023/06/11 08:30:58;;;;;;;1999.90;999.90;;;;;;;;;;4883042;29;20216;-72
2023/06/11 08:33:43;;;;;;;1999.90;999.90;;;;;;;;;;4878016;29;20598;-72
2023/06/11 08:36:28;;;;;;;1999.90;999.90;;;;;;;;;;4878806;29;20514;-73
2023/06/11 08:39:14;;;;;;;1999.90;999.90;;;;;;;;;;4881317;29;20249;-72
2023/06/11 08:41:59;;;;;;;1999.90;999.90;;;;;;;;;;4884244;29;20251;-71
2023/06/11 08:44:44;;;;;;;1999.90;999.90;;;;;;;;;;4888154;29;20234;-72
2023/06/11 08:47:30;;;;;;;1999.90;999.90;;;;;;;;;;4887649;29;20775;-74
2023/06/11 08:50:16;;;;;;;1999.90;999.90;;;;;;;;;;4890538;29;20595;-71
2023/06/11 08:53:03;;;;;;;1999.90;999.90;;;;;;;;;;4887402;29;20616;-72
2023/06/11 08:55:50;;;;;;;1999.90;999.90;;;;;;;;;;4876409;29;20235;-71
2023/06/11 08:58:36;;;;;;;1999.90;999.90;;;;;;;;;;4877730;29;20227;-72
2023/06/11 09:01:21;;;;;;;1999.90;999.90;;;;;;;;;;4874861;29;20258;-72
2023/06/11 09:04:06;;;;;;;1999.90;999.90;;;;;;;;;;4875573;29;20588;-73
2023/06/11 09:06:52;;;;;;;1999.90;999.90;;;;;;;;;;4864100;29;20348;-72
2023/06/11 09:09:37;;;;;;;1999.90;999.90;;;;;;;;;;4869827;29;20272;-71
2023/06/11 09:12:26;;;;;;;1999.90;999.90;;;;;;;;;;4879924;29;20219;-71
2023/06/11 09:15:12;;;;;;;1999.90;999.90;;;;;;;;;;4873107;29;20735;-72
2023/06/11 09:17:57;;;;;;;1999.90;999.90;;;;;;;;;;4879004;29;20219;-72
2023/06/11 09:20:42;;;;;;;1999.90;999.90;;;;;;;;;;4883669;29;20235;-72
2023/06/11 09:23:28;;;;;;;1999.90;999.90;;;;;;;;;;4876126;29;20260;-72
2023/06/11 09:26:17;;;;;;;1999.90;999.90;;;;;;;;;;4878725;29;20261;-72
2023/06/11 09:29:04;;;;;;;1999.90;999.90;;;;;;;;;;4866220;29;20452;-72
2023/06/11 09:31:50;;;;;;;1999.90;999.90;;;;;;;;;;4871863;29;20216;-72
2023/06/11 09:34:36;;;;;;;1999.90;999.90;;;;;;;;;;4879644;29;20295;-73
2023/06/11 09:37:21;;;;;;;1999.90;999.90;;;;;;;;;;4879108;29;20211;-70
2023/06/11 09:40:09;;;;;;;1999.90;999.90;;;;;;;;;;4885937;29;20279;-73
2023/06/11 09:42:54;;;;;;;1999.90;999.90;;;;;;;;;;4881022;29;20215;-73
2023/06/11 09:45:41;;;;;;;1999.90;999.90;;;;;;;;;;4879306;29;20279;-72
2023/06/11 09:48:26;;;;;;;1999.90;999.90;;;;;;;;;;4871144;29;20279;-72
2023/06/11 09:51:11;;;;;;;1999.90;999.90;;;;;;;;;;4878325;29;20223;-73
2023/06/11 09:53:56;;;;;;;1999.90;999.90;;;;;;;;;;4878068;29;20285;-71
2023/06/11 09:56:42;;;;;;;1999.90;999.90;;;;;;;;;;4881172;29;20219;-73
2023/06/11 09:59:27;;;;;;;1999.90;999.90;;;;;;;;;;4877959;29;20479;-72
2023/06/11 10:02:14;;;;;;;1999.90;999.90;;;;;;;;;;4878546;29;20815;-72
2023/06/11 10:04:58;;;;;;;1999.90;999.90;;;;;;;;;;4875137;29;20239;-72
2023/06/11 10:07:46;;;;;;;1999.90;999.90;;;;;;;;;;4879685;29;20211;-72
2023/06/11 10:10:35;;;;;;;1999.90;999.90;;;;;;;;;;4880486;29;20307;-74
2023/06/11 10:13:30;;;;;;;1999.90;999.90;;;;;;;;;;4883143;29;20227;-72
2023/06/11 10:16:14;;;;;;;1999.90;999.90;;;;;;;;;;4868995;29;20296;-73
2023/06/11 10:19:08;;;;;;;1999.90;999.90;;;;;;;;;;4874605;29;20653;-72
2023/06/11 10:22:01;;;;;;;1999.90;999.90;;;;;;;;;;4882242;29;20207;-72
2023/06/11 10:24:55;;;;;;;1999.90;999.90;;;;;;;;;;4890215;29;20227;-73
2023/06/11 10:27:42;;;;;;;1999.90;999.90;;;;;;;;;;4882082;29;20329;-71
2023/06/11 10:30:27;;;;;;;1999.90;999.90;;;;;;;;;;4877181;29;20328;-71
2023/06/11 10:33:12;;;;;;;1999.90;999.90;;;;;;;;;;4879181;29;20218;-71
2023/06/11 10:36:02;;;;;;;1999.90;999.90;;;;;;;;;;4883358;29;20253;-71
2023/06/11 10:38:47;;;;;;;1999.90;999.90;;;;;;;;;;4880135;29;20326;-71
2023/06/11 10:41:32;;;;;;;1999.90;999.90;;;;;;;;;;4878950;29;20320;-72
2023/06/11 10:44:23;;;;;;;1999.90;999.90;;;;;;;;;;4871573;29;20736;-72
2023/06/11 10:47:08;;;;;;;1999.90;999.90;;;;;;;;;;4870667;29;20220;-71
2023/06/11 10:49:53;;;;;;;1999.90;999.90;;;;;;;;;;4863108;29;20453;-70
2023/06/11 10:52:54;;;;;;;1999.90;999.90;;;;;;;;;;4870245;29;20223;-71
2023/06/11 10:55:42;;;;;;;1999.90;999.90;;;;;;;;;;4873212;29;20240;-71
2023/06/11 10:58:29;;;;;;;1999.90;999.90;;;;;;;;;;4869423;29;20216;-72
2023/06/11 11:01:15;;;;;;;1999.90;999.90;;;;;;;;;;4874276;29;20704;-72
2023/06/11 11:04:02;;;;;;;1999.90;999.90;;;;;;;;;;4882755;29;20214;-73
2023/06/11 11:06:46;;;;;;;1999.90;999.90;;;;;;;;;;4884841;29;20216;-72
2023/06/11 11:09:33;;;;;;;1999.90;999.90;;;;;;;;;;4871796;29;20440;-71
2023/06/11 11:12:20;;;;;;;1999.90;999.90;;;;;;;;;;4878736;29;20215;-70
2023/06/11 11:15:05;;;;;;;1999.90;999.90;;;;;;;;;;4882748;29;20238;-70
2023/06/11 11:17:51;;;;;;;1999.90;999.90;;;;;;;;;;4872637;29;20226;-72
2023/06/11 11:20:36;;;;;;;1999.90;999.90;;;;;;;;;;4873606;29;20232;-72
2023/06/11 11:23:20;;;;;;;1999.90;999.90;;;;;;;;;;4879906;29;20344;-72
2023/06/11 11:26:07;;;;;;;1999.90;999.90;;;;;;;;;;4870639;29;20235;-73
2023/06/11 11:28:52;;;;;;;1999.90;999.90;;;;;;;;;;4883000;29;20223;-71
2023/06/11 11:31:37;;;;;;;1999.90;999.90;;;;;;;;;;4880673;29;20253;-71
2023/06/11 11:34:22;;;;;;;1999.90;999.90;;;;;;;;;;4869440;29;20247;-73
2023/06/11 11:37:07;;;;;;;1999.90;999.90;;;;;;;;;;4870436;29;20748;-72
2023/06/11 11:39:53;;;;;;;1999.90;999.90;;;;;;;;;;4875951;29;20450;-72
2023/06/11 11:42:56;;;;;;;1999.90;999.90;;;;;;;;;;4880459;29;20211;-73
2023/06/11 11:45:45;;;;;;;1999.90;999.90;;;;;;;;;;4895172;29;20231;-72
2023/06/11 11:48:32;;;;;;;1999.90;999.90;;;;;;;;;;4897709;29;20308;-73
2023/06/11 11:51:17;;;;;;;1999.90;999.90;;;;;;;;;;4897586;29;20287;-73
2023/06/11 11:54:02;;;;;;;1999.90;999.90;;;;;;;;;;4897352;29;20210;-73
2023/06/11 11:56:47;;;;;;;1999.90;999.90;;;;;;;;;;4897311;29;20321;-73
2023/06/11 11:59:37;;;;;;;1999.90;999.90;;;;;;;;;;4896719;29;20430;-72
2023/06/11 12:02:27;;;;;;;1999.90;999.90;;;;;;;;;;4897138;29;20763;-73
2023/06/11 12:05:13;;;;;;;1999.90;999.90;;;;;;;;;;4897203;29;20295;-73
2023/06/11 12:07:58;;;;;;;1999.90;999.90;;;;;;;;;;4897145;29;20320;-72
2023/06/11 12:10:45;;;;;;;1999.90;999.90;;;;;;;;;;4896928;29;20207;-72
2023/06/11 12:13:30;;;;;;;1999.90;999.90;;;;;;;;;;4897105;29;20214;-72
2023/06/11 12:16:15;;;;;;;1999.90;999.90;;;;;;;;;;4897026;29;20719;-72
2023/06/11 12:19:01;;;;;;;1999.90;999.90;;;;;;;;;;4896937;29;20228;-72
2023/06/11 12:21:46;;;;;;;1999.90;999.90;;;;;;;;;;4896498;29;20362;-72
2023/06/11 12:24:32;;;;;;;1999.90;999.90;;;;;;;;;;4896800;29;20322;-73
2023/06/11 12:27:17;;;;;;;1999.90;999.90;;;;;;;;;;4896705;29;20215;-72
2023/06/11 12:30:02;;;;;;;1999.90;999.90;;;;;;;;;;4896462;29;20422;-72
2023/06/11 12:32:47;;;;;;;1999.90;999.90;;;;;;;;;;4896756;29;20214;-72
2023/06/11 12:35:33;;;;;;;1999.90;999.90;;;;;;;;;;4896836;29;20242;-72
2023/06/11 12:38:18;;;;;;;1999.90;999.90;;;;;;;;;;4896915;29;20591;-72
2023/06/11 12:41:03;;;;;;;1999.90;999.90;;;;;;;;;;4896552;29;20221;-73
2023/06/11 12:43:48;;;;;;;1999.90;999.90;;;;;;;;;;4896836;29;20259;-72
2023/06/11 12:46:35;;;;;;;1999.90;999.90;;;;;;;;;;4896840;29;20670;-72
2023/06/11 12:49:22;;;;;;;1999.90;999.90;;;;;;;;;;4896251;29;20391;-73
2023/06/11 12:52:09;;;;;;;1999.90;999.90;;;;;;;;;;4896591;29;20222;-72
2023/06/11 12:54:54;;;;;;;1999.90;999.90;;;;;;;;;;4896697;29;20278;-74
2023/06/11 12:57:39;;;;;;;1999.90;999.90;;;;;;;;;;4900541;29;20201;-74
2023/06/11 13:00:25;;;;;;;1999.90;999.90;;;;;;;;;;4900122;29;20271;-73
2023/06/11 13:03:10;;;;;;;1999.90;999.90;;;;;;;;;;4900110;29;20211;-73
2023/06/11 13:05:55;;;;;;;1999.90;999.90;;;;;;;;;;4900330;29;20227;-72
2023/06/11 13:08:41;;;;;;;1999.90;999.90;;;;;;;;;;4900386;29;20294;-71
2023/06/11 13:11:27;;;;;;;1999.90;999.90;;;;;;;;;;4900008;29;20583;-72
2023/06/11 13:14:12;;;;;;;1999.90;999.90;;;;;;;;;;4900200;29;20226;-72
2023/06/11 13:16:57;;;;;;;1999.90;999.90;;;;;;;;;;4900257;29;20218;-71
2023/06/11 13:19:42;;;;;;;1999.90;999.90;;;;;;;;;;4900097;29;20218;-73
2023/06/11 13:22:27;;;;;;;1999.90;999.90;;;;;;;;;;4899685;29;20291;-72
2023/06/11 13:25:13;;;;;;;1999.90;999.90;;;;;;;;;;4899798;29;20229;-72
2023/06/11 13:27:58;;;;;;;1999.90;999.90;;;;;;;;;;4900055;29;20215;-73
2023/06/11 13:30:43;;;;;;;1999.90;999.90;;;;;;;;;;4899997;29;20348;-73
2023/06/11 13:33:27;;;;;;;1999.90;999.90;;;;;;;;;;4899598;29;20637;-73
2023/06/11 13:36:12;;;;;;;1999.90;999.90;;;;;;;;;;4899996;29;20243;-72
2023/06/11 13:38:57;;;;;;;1999.90;999.90;;;;;;;;;;4899747;29;20354;-73
2023/06/11 13:41:45;;;;;;;1999.90;999.90;;;;;;;;;;4899156;29;20449;-72
2023/06/11 13:44:30;;;;;;;1999.90;999.90;;;;;;;;;;4899727;29;20226;-72
2023/06/11 13:47:15;;;;;;;1999.90;999.90;;;;;;;;;;4899714;29;20332;-73
2023/06/11 13:49:59;;;;;;;1999.90;999.90;;;;;;;;;;4899486;29;20215;-72
2023/06/11 13:52:45;;;;;;;1999.90;999.90;;;;;;;;;;4899553;29;20214;-72
2023/06/11 13:55:30;;;;;;;1999.90;999.90;;;;;;;;;;4899356;29;20226;-73
2023/06/11 13:58:17;;;;;;;1999.90;999.90;;;;;;;;;;4899472;29;20319;-72
2023/06/11 14:01:02;;;;;;;1999.90;999.90;;;;;;;;;;4899249;29;20339;-72
2023/06/11 14:03:47;;;;;;;1999.90;999.90;;;;;;;;;;4899438;29;20207;-72
2023/06/11 14:06:32;;;;;;;1999.90;999.90;;;;;;;;;;4898921;29;20215;-72
2023/06/11 14:09:17;;;;;;;1999.90;999.90;;;;;;;;;;4899259;29;20214;-72
2023/06/11 14:12:02;;;;;;;1999.90;999.90;;;;;;;;;;4899123;29;20207;-72
2023/06/11 14:14:48;;;;;;;1999.90;999.90;;;;;;;;;;4899120;29;20314;-72
2023/06/11 14:17:35;;;;;;;1999.90;999.90;;;;;;;;;;4900272;29;20215;-72
2023/06/11 14:20:20;;;;;;;1999.90;999.90;;;;;;;;;;4899023;29;20210;-73
2023/06/11 14:23:05;;;;;;;1999.90;999.90;;;;;;;;;;4898693;29;20211;-72
2023/06/11 14:25:50;;;;;;;1999.90;999.90;;;;;;;;;;4899033;29;20713;-72
2023/06/11 14:28:35;;;;;;;1999.90;999.90;;;;;;;;;;4898729;29;20198;-73
2023/06/11 14:31:21;;;;;;;1999.90;999.90;;;;;;;;;;4898831;29;20699;-72
2023/06/11 14:34:06;;;;;;;1999.90;999.90;;;;;;;;;;4898601;29;20213;-72
2023/06/11 14:36:51;;;;;;;1999.90;999.90;;;;;;;;;;4898816;29;20833;-72
2023/06/11 14:39:36;;;;;;;1999.90;999.90;;;;;;;;;;4898690;29;20581;-72
2023/06/11 14:42:21;;;;;;;1999.90;999.90;;;;;;;;;;4898379;29;20235;-72
2023/06/11 14:45:07;;;;;;;1999.90;999.90;;;;;;;;;;4898604;29;20226;-72
2023/06/11 14:47:53;;;;;;;1999.90;999.90;;;;;;;;;;4898614;29;20207;-72
2023/06/11 14:50:38;;;;;;;1999.90;999.90;;;;;;;;;;4898187;29;20210;-72
2023/06/11 14:53:23;;;;;;;1999.90;999.90;;;;;;;;;;4898487;29;20332;-72
2023/06/11 14:56:08;;;;;;;1999.90;999.90;;;;;;;;;;4898454;29;20326;-72
2023/06/11 14:58:53;;;;;;;1999.90;999.90;;;;;;;;;;4898330;29;20344;-72
2023/06/11 15:01:40;;;;;;;1999.90;999.90;;;;;;;;;;4898144;29;20222;-71
2023/06/11 15:04:26;;;;;;;1999.90;999.90;;;;;;;;;;4898353;29;20234;-72
2023/06/11 15:07:12;;;;;;;1999.90;999.90;;;;;;;;;;4898060;29;20764;-72
2023/06/11 15:09:57;;;;;;;1999.90;999.90;;;;;;;;;;4898182;29;20214;-72
2023/06/11 15:12:42;;;;;;;1999.90;999.90;;;;;;;;;;4897812;29;20692;-72
2023/06/11 15:15:27;;;;;;;1999.90;999.90;;;;;;;;;;4898046;29;20775;-72
2023/06/11 15:18:12;;;;;;;1999.90;999.90;;;;;;;;;;4897320;29;20263;-72
2023/06/11 15:20:59;;;;;;;1999.90;999.90;;;;;;;;;;4897888;29;20298;-72
2023/06/11 15:23:43;;;;;;;1999.90;999.90;;;;;;;;;;4896516;29;20453;-72
2023/06/11 15:26:28;;;;;;;1999.90;999.90;;;;;;;;;;4897980;29;20319;-72
2023/06/11 15:29:13;;;;;;;1999.90;999.90;;;;;;;;;;4897844;29;20210;-71
2023/06/11 15:31:59;;;;;;;1999.90;999.90;;;;;;;;;;4897622;29;20211;-72
2023/06/11 15:34:44;;;;;;;1999.90;999.90;;;;;;;;;;4897593;29;20269;-72
2023/06/11 15:37:31;;;;;;;1999.90;999.90;;;;;;;;;;4898170;29;20219;-72
2023/06/11 15:40:16;;;;;;;1999.90;999.90;;;;;;;;;;4897494;29;20583;-72
2023/06/11 15:43:00;;;;;;;1999.90;999.90;;;;;;;;;;4897281;29;20245;-72
2023/06/11 15:45:49;;;;;;;1999.90;999.90;;;;;;;;;;4897288;29;20222;-72
2023/06/11 15:48:34;;;;;;;1999.90;999.90;;;;;;;;;;4897380;29;20215;-72
2023/06/11 15:51:19;;;;;;;1999.90;999.90;;;;;;;;;;4897437;29;20202;-70
2023/06/11 15:54:05;;;;;;;1999.90;999.90;;;;;;;;;;4896104;29;21002;-72
2023/06/11 15:56:50;;;;;;;1999.90;999.90;;;;;;;;;;4897568;29;20593;-72
2023/06/11 15:59:35;;;;;;;1999.90;999.90;;;;;;;;;;4897290;29;20760;-72